BAW127 EGLL-OMDB
Flight info
| Callsign | BAW127 |
|---|---|
| Flight time | N/A |
| Altitude | 35000 |
| Route | MAXIT Y803 MID L612 BOGNA UL612 VEULE DCT KOTAP DCT KETEX DCT KOTIS DCT KUKOR DCT UTUVA DCT TITVA DCT NOQAS DCT OTROT DCT RETNO DCT KOLON DCT RAPUR DCT RATAP DCT BTA/N0479F360 DCT MOULE DCT XOPTA/N0482F350 DCT RIFFI DCT PNZ DCT MASOT DCT BELIX/N0479F370 DCT SALUN N705 MMA P751 DASUM Y234 FYM M872 BDB Y214 MOBAG/N0483F390 Y214 RAPMA DCT KUVSO DCT KATIT DCT PEKEM M628 RIGIL G783 ELUDA/N0499F350 G783 ASPED Q308 KIPOK Q568 IMPED |
| Aircraft | B772/H-SDE2E3FGHIJ5LORVWXY/LB1D1 |
Departure
| Time | 2026-05-04 09:26 |
|---|---|
| Airport | London Heathrow Airport (EGLL) |
Arrival
| Time | N/A |
|---|---|
| Airport | Dubai International Airport (OMDB) |
| Time | Latitude | Longitude | Altitude | Speed | Heading |
|---|---|---|---|---|---|
| 2026-05-04 09:01 | 51.47055 | -0.47498 | 91 ft | 0 kts | 270° |
| 2026-05-04 09:14 | 51.47110 | -0.47352 | 90 ft | 0 kts | 180° |
| 2026-05-04 09:17 | 51.46982 | -0.47351 | 92 ft | 7 kts | 180° |
| 2026-05-04 09:18 | 51.46935 | -0.47351 | 90 ft | 7 kts | 180° |
| 2026-05-04 09:18 | 51.46878 | -0.47350 | 90 ft | 9 kts | 179° |
| 2026-05-04 09:18 | 51.46816 | -0.47350 | 90 ft | 9 kts | 179° |
| 2026-05-04 09:18 | 51.46754 | -0.47349 | 90 ft | 9 kts | 179° |
| 2026-05-04 09:19 | 51.46692 | -0.47348 | 92 ft | 9 kts | 176° |
| 2026-05-04 09:19 | 51.46654 | -0.47280 | 94 ft | 9 kts | 96° |
| 2026-05-04 09:19 | 51.46656 | -0.47179 | 93 ft | 10 kts | 89° |
| 2026-05-04 09:19 | 51.46657 | -0.47059 | 94 ft | 12 kts | 89° |
| 2026-05-04 09:20 | 51.46657 | -0.46916 | 94 ft | 14 kts | 90° |
| 2026-05-04 09:20 | 51.46657 | -0.46746 | 94 ft | 17 kts | 90° |
| 2026-05-04 09:20 | 51.46659 | -0.46535 | 94 ft | 19 kts | 89° |
| 2026-05-04 09:20 | 51.46659 | -0.46319 | 94 ft | 19 kts | 90° |
| 2026-05-04 09:21 | 51.46660 | -0.46102 | 94 ft | 19 kts | 89° |
| 2026-05-04 09:21 | 51.46661 | -0.45885 | 90 ft | 19 kts | 89° |
| 2026-05-04 09:21 | 51.46661 | -0.45670 | 90 ft | 19 kts | 89° |
| 2026-05-04 09:21 | 51.46662 | -0.45453 | 90 ft | 19 kts | 90° |
| 2026-05-04 09:22 | 51.46663 | -0.45237 | 91 ft | 19 kts | 90° |
| 2026-05-04 09:22 | 51.46663 | -0.45020 | 91 ft | 19 kts | 90° |
| 2026-05-04 09:22 | 51.46664 | -0.44804 | 91 ft | 19 kts | 90° |
| 2026-05-04 09:22 | 51.46665 | -0.44588 | 91 ft | 19 kts | 89° |
| 2026-05-04 09:23 | 51.46666 | -0.44374 | 91 ft | 19 kts | 89° |
| 2026-05-04 09:23 | 51.46666 | -0.44157 | 90 ft | 19 kts | 90° |
| 2026-05-04 09:23 | 51.46667 | -0.43941 | 90 ft | 19 kts | 89° |
| 2026-05-04 09:23 | 51.46668 | -0.43757 | 92 ft | 10 kts | 90° |
| 2026-05-04 09:25 | 51.46493 | -0.44252 | 91 ft | 74 kts | 270° |
| 2026-05-04 09:25 | 51.46488 | -0.45380 | 91 ft | 132 kts | 270° |
| 2026-05-04 09:26 | 51.46487 | -0.47140 | 98 ft | 182 kts | 270° |
| 2026-05-04 09:26 | 51.46470 | -0.49240 | 557 ft | 189 kts | 271° |
| 2026-05-04 09:26 | 51.46447 | -0.51358 | 1217 ft | 191 kts | 271° |
| 2026-05-04 09:26 | 51.46327 | -0.53489 | 1775 ft | 199 kts | 250° |
| 2026-05-04 09:27 | 51.45632 | -0.55493 | 1943 ft | 209 kts | 238° |
| 2026-05-04 09:27 | 51.44839 | -0.57550 | 2060 ft | 227 kts | 238° |
| 2026-05-04 09:27 | 51.43981 | -0.59789 | 2214 ft | 243 kts | 235° |
| 2026-05-04 09:27 | 51.42702 | -0.61615 | 2416 ft | 256 kts | 202° |
| 2026-05-04 09:28 | 51.40953 | -0.61926 | 2882 ft | 257 kts | 166° |
| 2026-05-04 09:28 | 51.39262 | -0.61015 | 3283 ft | 259 kts | 158° |
| 2026-05-04 09:28 | 51.37578 | -0.59975 | 3828 ft | 261 kts | 159° |
| 2026-05-04 09:28 | 51.35859 | -0.58952 | 4349 ft | 264 kts | 160° |
| 2026-05-04 09:29 | 51.34143 | -0.57971 | 5032 ft | 261 kts | 161° |
| 2026-05-04 09:29 | 51.32411 | -0.57006 | 5503 ft | 265 kts | 161° |
| 2026-05-04 09:29 | 51.30658 | -0.56043 | 5843 ft | 266 kts | 161° |
| 2026-05-04 09:29 | 51.28888 | -0.55499 | 5853 ft | 256 kts | 184° |
| 2026-05-04 09:30 | 51.27116 | -0.55826 | 6042 ft | 265 kts | 186° |
| 2026-05-04 09:30 | 51.25244 | -0.56126 | 6015 ft | 273 kts | 185° |
| 2026-05-04 09:30 | 51.23375 | -0.56560 | 6299 ft | 272 kts | 191° |
| 2026-05-04 09:30 | 51.21529 | -0.57185 | 6884 ft | 270 kts | 192° |
| 2026-05-04 09:31 | 51.19688 | -0.57827 | 7392 ft | 271 kts | 192° |
| 2026-05-04 09:31 | 51.17844 | -0.58458 | 7896 ft | 272 kts | 192° |
| 2026-05-04 09:31 | 51.15982 | -0.59082 | 8373 ft | 274 kts | 192° |
| 2026-05-04 09:31 | 51.14112 | -0.59697 | 8858 ft | 276 kts | 192° |
| 2026-05-04 09:32 | 51.12261 | -0.60297 | 9327 ft | 277 kts | 192° |
| 2026-05-04 09:32 | 51.10388 | -0.60900 | 9803 ft | 279 kts | 192° |
| 2026-05-04 09:34 | 50.96421 | -0.52995 | 11393 ft | 371 kts | 147° |
| 2026-05-04 09:34 | 50.94273 | -0.50681 | 12026 ft | 376 kts | 147° |
| 2026-05-04 09:34 | 50.92101 | -0.48355 | 12847 ft | 378 kts | 147° |
| 2026-05-04 09:34 | 50.89908 | -0.46016 | 13670 ft | 381 kts | 147° |
| 2026-05-04 09:35 | 50.87696 | -0.43665 | 14366 ft | 385 kts | 147° |
| 2026-05-04 09:35 | 50.85457 | -0.41293 | 15069 ft | 389 kts | 147° |
| 2026-05-04 09:35 | 50.83198 | -0.38902 | 15780 ft | 392 kts | 147° |
| 2026-05-04 09:35 | 50.80918 | -0.36492 | 16512 ft | 396 kts | 148° |
| 2026-05-04 09:37 | 50.64317 | -0.19038 | 21093 ft | 422 kts | 148° |
| 2026-05-04 09:37 | 50.61869 | -0.16476 | 21754 ft | 423 kts | 148° |
| 2026-05-04 09:38 | 50.59403 | -0.13897 | 22380 ft | 426 kts | 148° |
| 2026-05-04 09:38 | 50.56925 | -0.11310 | 22900 ft | 430 kts | 148° |
| 2026-05-04 09:38 | 50.54412 | -0.08689 | 23437 ft | 434 kts | 148° |
| 2026-05-04 09:38 | 50.51886 | -0.06057 | 23897 ft | 437 kts | 148° |
| 2026-05-04 09:39 | 50.49346 | -0.03412 | 24377 ft | 439 kts | 149° |
| 2026-05-04 09:39 | 50.46830 | -0.00797 | 24885 ft | 439 kts | 149° |
| 2026-05-04 09:39 | 50.44284 | 0.01845 | 25366 ft | 439 kts | 149° |
| 2026-05-04 09:39 | 50.41732 | 0.04497 | 25835 ft | 440 kts | 150° |
| 2026-05-04 09:40 | 50.39176 | 0.07153 | 26266 ft | 442 kts | 150° |
| 2026-05-04 09:40 | 50.36610 | 0.09815 | 26676 ft | 443 kts | 150° |
| 2026-05-04 09:40 | 50.34036 | 0.12486 | 27056 ft | 445 kts | 150° |
| 2026-05-04 09:40 | 50.31447 | 0.15172 | 27433 ft | 447 kts | 150° |
| 2026-05-04 09:41 | 50.28848 | 0.17866 | 27806 ft | 448 kts | 150° |
| 2026-05-04 09:42 | 50.10399 | 0.36858 | 29745 ft | 460 kts | 150° |
| 2026-05-04 09:43 | 50.07723 | 0.39596 | 29992 ft | 460 kts | 150° |
| 2026-05-04 09:43 | 50.05044 | 0.42334 | 30238 ft | 460 kts | 150° |
| 2026-05-04 09:43 | 50.02375 | 0.45060 | 30498 ft | 459 kts | 150° |
| 2026-05-04 09:43 | 49.99697 | 0.47789 | 30620 ft | 462 kts | 150° |
| 2026-05-04 09:44 | 49.94304 | 0.53274 | 30943 ft | 464 kts | 150° |
| 2026-05-04 09:44 | 49.91609 | 0.56011 | 31250 ft | 461 kts | 150° |
| 2026-05-04 09:46 | 49.73294 | 0.75668 | 33023 ft | 455 kts | 147° |
| 2026-05-04 09:46 | 49.70728 | 0.78529 | 33280 ft | 454 kts | 147° |
| 2026-05-04 09:46 | 49.68166 | 0.81368 | 33545 ft | 453 kts | 147° |
| 2026-05-04 09:47 | 49.65643 | 0.84151 | 33795 ft | 452 kts | 148° |
| 2026-05-04 09:47 | 49.63089 | 0.86958 | 34041 ft | 450 kts | 148° |
| 2026-05-04 09:49 | 49.45176 | 1.06520 | 34956 ft | 455 kts | 148° |
| 2026-05-04 09:49 | 49.42590 | 1.09331 | 34982 ft | 456 kts | 148° |
| 2026-05-04 09:51 | 49.24561 | 1.28828 | 34992 ft | 452 kts | 148° |
| 2026-05-04 09:51 | 49.19418 | 1.34356 | 34976 ft | 451 kts | 149° |
| 2026-05-04 09:52 | 49.14312 | 1.39831 | 34983 ft | 451 kts | 149° |
| 2026-05-04 09:52 | 49.09170 | 1.45328 | 34991 ft | 451 kts | 149° |
| 2026-05-04 09:53 | 49.04030 | 1.50810 | 34994 ft | 451 kts | 149° |
| 2026-05-04 09:53 | 48.99752 | 1.55363 | 34992 ft | 451 kts | 149° |
| 2026-05-04 09:54 | 48.94603 | 1.60828 | 34988 ft | 451 kts | 149° |
| 2026-05-04 09:54 | 48.89446 | 1.66289 | 34994 ft | 451 kts | 149° |
| 2026-05-04 09:55 | 48.84294 | 1.71731 | 34985 ft | 452 kts | 149° |
| 2026-05-04 09:55 | 48.79134 | 1.77168 | 34989 ft | 451 kts | 149° |
| 2026-05-04 09:56 | 48.73973 | 1.82591 | 34987 ft | 451 kts | 149° |
| 2026-05-04 09:56 | 48.68809 | 1.88004 | 34997 ft | 451 kts | 149° |
| 2026-05-04 09:57 | 48.63643 | 1.93404 | 34990 ft | 451 kts | 149° |
| 2026-05-04 09:57 | 48.58473 | 1.98797 | 34999 ft | 451 kts | 149° |
| 2026-05-04 09:58 | 48.53301 | 2.04176 | 34993 ft | 452 kts | 149° |
| 2026-05-04 09:58 | 48.48108 | 2.09565 | 34978 ft | 452 kts | 149° |
| 2026-05-04 10:00 | 48.27118 | 2.29982 | 34995 ft | 445 kts | 161° |
| 2026-05-04 10:04 | 47.85822 | 2.49647 | 34990 ft | 447 kts | 165° |
| 2026-05-04 10:04 | 47.79927 | 2.52556 | 34991 ft | 446 kts | 165° |
| 2026-05-04 10:05 | 47.74030 | 2.55459 | 34985 ft | 447 kts | 165° |
| 2026-05-04 10:05 | 47.68123 | 2.58360 | 34988 ft | 446 kts | 165° |
| 2026-05-04 10:06 | 47.62228 | 2.61249 | 34985 ft | 446 kts | 165° |
| 2026-05-04 10:06 | 47.56332 | 2.64130 | 34998 ft | 446 kts | 165° |
| 2026-05-04 10:08 | 47.35659 | 2.74183 | 34989 ft | 446 kts | 165° |
| 2026-05-04 10:08 | 47.29745 | 2.77044 | 34987 ft | 446 kts | 165° |
| 2026-05-04 10:09 | 47.23883 | 2.79873 | 34987 ft | 446 kts | 165° |
| 2026-05-04 10:09 | 47.17982 | 2.82707 | 34990 ft | 446 kts | 165° |
| 2026-05-04 10:10 | 47.12073 | 2.85533 | 34989 ft | 446 kts | 165° |
| 2026-05-04 10:10 | 47.06161 | 2.88355 | 34973 ft | 447 kts | 166° |
| 2026-05-04 10:11 | 47.00240 | 2.91176 | 34986 ft | 447 kts | 166° |
| 2026-05-04 10:11 | 46.94312 | 2.93995 | 34992 ft | 447 kts | 166° |
| 2026-05-04 10:12 | 46.88395 | 2.96801 | 34979 ft | 447 kts | 166° |
| 2026-05-04 10:12 | 46.82482 | 2.99601 | 35000 ft | 446 kts | 166° |
| 2026-05-04 10:13 | 46.76621 | 3.02368 | 35000 ft | 445 kts | 166° |
| 2026-05-04 10:13 | 46.70726 | 3.05146 | 34999 ft | 445 kts | 166° |
| 2026-05-04 10:14 | 46.64842 | 3.07911 | 34983 ft | 445 kts | 166° |
| 2026-05-04 10:16 | 46.42219 | 3.19298 | 34998 ft | 447 kts | 163° |
| 2026-05-04 10:17 | 46.39787 | 3.20632 | 34998 ft | 447 kts | 163° |
| 2026-05-04 10:19 | 46.16371 | 3.33180 | 34983 ft | 452 kts | 163° |
| 2026-05-04 10:19 | 46.10479 | 3.36314 | 34987 ft | 451 kts | 163° |
| 2026-05-04 10:20 | 46.04584 | 3.39442 | 34994 ft | 450 kts | 163° |
| 2026-05-04 10:20 | 45.98707 | 3.42553 | 34997 ft | 450 kts | 163° |
| 2026-05-04 10:21 | 45.92830 | 3.45659 | 34990 ft | 450 kts | 163° |
| 2026-05-04 10:21 | 45.86993 | 3.48935 | 34987 ft | 452 kts | 159° |
| 2026-05-04 10:22 | 45.78896 | 3.56038 | 34996 ft | 457 kts | 151° |
| 2026-05-04 10:23 | 45.73637 | 3.61036 | 34995 ft | 456 kts | 151° |
| 2026-05-04 10:25 | 45.52426 | 3.80909 | 35013 ft | 456 kts | 152° |
| 2026-05-04 10:25 | 45.47102 | 3.85872 | 35013 ft | 457 kts | 152° |
| 2026-05-04 10:26 | 45.41771 | 3.90824 | 35008 ft | 458 kts | 152° |
| 2026-05-04 10:26 | 45.36695 | 3.96409 | 35026 ft | 467 kts | 141° |
| 2026-05-04 10:27 | 45.32371 | 4.03383 | 35029 ft | 476 kts | 131° |
| 2026-05-04 10:27 | 45.28529 | 4.11067 | 35039 ft | 478 kts | 131° |
| 2026-05-04 10:28 | 45.24652 | 4.18731 | 35019 ft | 477 kts | 131° |
| 2026-05-04 10:28 | 45.20749 | 4.26341 | 35010 ft | 477 kts | 131° |
| 2026-05-04 10:29 | 45.16857 | 4.33951 | 35033 ft | 477 kts | 131° |
| 2026-05-04 10:29 | 45.12959 | 4.41562 | 35041 ft | 477 kts | 131° |
| 2026-05-04 10:30 | 45.08849 | 4.48899 | 35053 ft | 474 kts | 136° |
| 2026-05-04 10:30 | 45.04510 | 4.55916 | 35049 ft | 475 kts | 137° |
| 2026-05-04 10:31 | 45.00163 | 4.62948 | 35059 ft | 476 kts | 136° |
| 2026-05-04 10:32 | 44.84843 | 4.87784 | 35039 ft | 477 kts | 137° |
| 2026-05-04 10:33 | 44.80489 | 4.94805 | 35049 ft | 475 kts | 137° |
| 2026-05-04 10:33 | 44.76128 | 5.01812 | 35048 ft | 476 kts | 137° |
| 2026-05-04 10:34 | 44.71751 | 5.08829 | 35058 ft | 479 kts | 137° |
| 2026-05-04 10:34 | 44.67337 | 5.15889 | 35051 ft | 481 kts | 137° |
| 2026-05-04 10:35 | 44.62909 | 5.22959 | 35059 ft | 482 kts | 137° |
| 2026-05-04 10:35 | 44.58467 | 5.30031 | 35072 ft | 484 kts | 137° |
| 2026-05-04 10:36 | 44.54033 | 5.37074 | 35044 ft | 486 kts | 137° |
| 2026-05-04 10:36 | 44.49549 | 5.44177 | 35053 ft | 487 kts | 137° |
| 2026-05-04 10:37 | 44.45051 | 5.51288 | 35069 ft | 488 kts | 137° |
| 2026-05-04 10:37 | 44.40535 | 5.58410 | 35075 ft | 489 kts | 137° |
| 2026-05-04 10:39 | 44.26631 | 5.85787 | 35080 ft | 495 kts | 129° |
| 2026-05-04 10:40 | 44.22757 | 5.93726 | 35100 ft | 495 kts | 129° |
| 2026-05-04 10:40 | 44.18866 | 6.01660 | 35103 ft | 497 kts | 129° |
| 2026-05-04 10:41 | 44.14958 | 6.09614 | 35097 ft | 497 kts | 129° |
| 2026-05-04 10:41 | 44.11068 | 6.17511 | 35099 ft | 498 kts | 129° |
| 2026-05-04 10:42 | 44.07144 | 6.25460 | 35100 ft | 499 kts | 129° |
| 2026-05-04 10:42 | 44.03206 | 6.33415 | 35088 ft | 500 kts | 129° |
| 2026-05-04 10:43 | 43.99256 | 6.41370 | 35115 ft | 500 kts | 129° |
| 2026-05-04 10:45 | 43.83990 | 6.71916 | 35114 ft | 503 kts | 129° |
| 2026-05-04 10:45 | 43.79988 | 6.79873 | 35110 ft | 504 kts | 130° |
| 2026-05-04 10:46 | 43.76006 | 6.87768 | 35093 ft | 504 kts | 129° |
| 2026-05-04 10:46 | 43.71984 | 6.95726 | 35105 ft | 505 kts | 129° |
| 2026-05-04 10:47 | 43.68090 | 7.03839 | 35104 ft | 508 kts | 127° |
| 2026-05-04 10:47 | 43.64288 | 7.12076 | 35102 ft | 508 kts | 127° |
| 2026-05-04 10:49 | 43.48935 | 7.44695 | 35086 ft | 507 kts | 128° |
| 2026-05-04 10:50 | 43.45075 | 7.52811 | 35082 ft | 507 kts | 128° |
| 2026-05-04 10:52 | 43.29547 | 7.85244 | 35087 ft | 509 kts | 128° |
| 2026-05-04 10:52 | 43.25635 | 7.93358 | 35085 ft | 510 kts | 128° |
| 2026-05-04 10:54 | 43.09927 | 8.25723 | 35084 ft | 512 kts | 128° |
| 2026-05-04 10:56 | 42.94019 | 8.58146 | 35082 ft | 514 kts | 128° |
| 2026-05-04 10:57 | 42.90023 | 8.66239 | 35063 ft | 514 kts | 128° |
| 2026-05-04 10:57 | 42.86434 | 8.74721 | 35071 ft | 518 kts | 121° |
| 2026-05-04 10:58 | 42.83055 | 8.83401 | 35080 ft | 519 kts | 121° |
| 2026-05-04 10:58 | 42.80212 | 8.92472 | 35079 ft | 524 kts | 109° |
| 2026-05-04 10:59 | 42.78529 | 9.02148 | 35091 ft | 526 kts | 104° |
| 2026-05-04 10:59 | 42.76970 | 9.11894 | 35073 ft | 527 kts | 104° |
| 2026-05-04 11:00 | 42.75358 | 9.21599 | 35086 ft | 526 kts | 104° |
| 2026-05-04 11:02 | 42.68721 | 9.60243 | 35105 ft | 523 kts | 104° |
| 2026-05-04 11:05 | 42.44541 | 10.24850 | 35151 ft | 526 kts | 128° |
| 2026-05-04 11:06 | 42.40332 | 10.33022 | 35149 ft | 530 kts | 128° |
| 2026-05-04 11:06 | 42.36092 | 10.41228 | 35146 ft | 533 kts | 128° |
| 2026-05-04 11:10 | 42.06315 | 10.98192 | 35146 ft | 528 kts | 128° |
| 2026-05-04 11:12 | 41.89218 | 11.30417 | 35168 ft | 531 kts | 128° |
| 2026-05-04 11:12 | 41.84919 | 11.38467 | 35159 ft | 531 kts | 128° |
| 2026-05-04 11:13 | 41.80609 | 11.46516 | 35155 ft | 532 kts | 128° |
| 2026-05-04 11:13 | 41.76284 | 11.54571 | 35164 ft | 532 kts | 128° |
| 2026-05-04 11:14 | 41.71949 | 11.62625 | 35167 ft | 533 kts | 128° |
| 2026-05-04 11:16 | 41.54534 | 11.94761 | 35166 ft | 535 kts | 128° |
| 2026-05-04 11:16 | 41.50149 | 12.02801 | 35165 ft | 536 kts | 128° |
| 2026-05-04 11:17 | 41.45760 | 12.10827 | 35166 ft | 536 kts | 128° |
| 2026-05-04 11:19 | 41.28099 | 12.42914 | 35186 ft | 538 kts | 128° |
| 2026-05-04 11:19 | 41.23662 | 12.50922 | 35189 ft | 538 kts | 129° |
| 2026-05-04 11:20 | 41.18758 | 12.58394 | 35195 ft | 535 kts | 137° |
| 2026-05-04 11:20 | 41.13511 | 12.65419 | 35184 ft | 536 kts | 137° |
| 2026-05-04 11:22 | 40.92636 | 12.93755 | 35191 ft | 540 kts | 137° |
| 2026-05-04 11:23 | 40.87441 | 13.00951 | 35186 ft | 542 kts | 135° |
| 2026-05-04 11:25 | 40.69675 | 13.26812 | 35191 ft | 545 kts | 135° |
| 2026-05-04 11:25 | 40.64546 | 13.34171 | 35190 ft | 545 kts | 135° |
| 2026-05-04 11:27 | 40.41362 | 13.67237 | 35191 ft | 547 kts | 135° |
| 2026-05-04 11:28 | 40.36222 | 13.74520 | 35189 ft | 547 kts | 135° |
| 2026-05-04 11:28 | 40.31040 | 13.81844 | 35189 ft | 547 kts | 135° |
| 2026-05-04 11:29 | 40.25855 | 13.89156 | 35191 ft | 548 kts | 134° |
| 2026-05-04 11:29 | 40.20664 | 13.96458 | 35189 ft | 548 kts | 134° |
| 2026-05-04 11:33 | 39.85041 | 14.46101 | 35188 ft | 549 kts | 134° |
| 2026-05-04 11:33 | 39.79796 | 14.53342 | 35191 ft | 550 kts | 134° |
| 2026-05-04 11:34 | 39.74551 | 14.60566 | 35191 ft | 550 kts | 134° |
| 2026-05-04 11:34 | 39.69297 | 14.67785 | 35193 ft | 550 kts | 134° |
| 2026-05-04 11:35 | 39.64039 | 14.74992 | 35187 ft | 549 kts | 134° |
| 2026-05-04 11:35 | 39.58778 | 14.82187 | 35191 ft | 549 kts | 135° |
| 2026-05-04 11:36 | 39.53517 | 14.89365 | 35191 ft | 549 kts | 135° |
| 2026-05-04 11:36 | 39.48253 | 14.96528 | 35181 ft | 549 kts | 134° |
| 2026-05-04 11:37 | 39.42984 | 15.03682 | 35187 ft | 549 kts | 134° |
| 2026-05-04 11:37 | 39.37744 | 15.10782 | 35188 ft | 549 kts | 134° |
| 2026-05-04 11:38 | 39.32469 | 15.17912 | 35184 ft | 549 kts | 134° |
| 2026-05-04 11:38 | 39.27156 | 15.25076 | 35185 ft | 549 kts | 134° |
| 2026-05-04 11:39 | 39.21880 | 15.32173 | 35183 ft | 548 kts | 134° |
| 2026-05-04 11:41 | 39.03422 | 15.56876 | 35186 ft | 547 kts | 134° |
| 2026-05-04 11:41 | 38.98133 | 15.63917 | 35181 ft | 547 kts | 134° |
| 2026-05-04 11:42 | 38.92845 | 15.70940 | 35180 ft | 546 kts | 134° |
| 2026-05-04 11:42 | 38.87564 | 15.77939 | 35179 ft | 546 kts | 134° |
| 2026-05-04 11:43 | 38.82276 | 15.84932 | 35179 ft | 545 kts | 134° |
| 2026-05-04 11:43 | 38.76998 | 15.91896 | 35178 ft | 545 kts | 134° |
| 2026-05-04 11:44 | 38.71714 | 15.98851 | 35180 ft | 545 kts | 134° |
| 2026-05-04 11:44 | 38.66435 | 16.05784 | 35165 ft | 544 kts | 134° |
| 2026-05-04 11:45 | 38.61155 | 16.12702 | 35163 ft | 543 kts | 134° |
| 2026-05-04 11:45 | 38.55884 | 16.19595 | 35176 ft | 542 kts | 134° |
| 2026-05-04 11:46 | 38.50605 | 16.26482 | 35170 ft | 542 kts | 134° |
| 2026-05-04 11:46 | 38.45323 | 16.33357 | 35157 ft | 542 kts | 134° |
| 2026-05-04 11:47 | 38.40044 | 16.40213 | 35156 ft | 541 kts | 134° |
| 2026-05-04 11:47 | 38.34810 | 16.46997 | 35155 ft | 540 kts | 134° |
| 2026-05-04 11:48 | 38.29547 | 16.53803 | 35162 ft | 539 kts | 134° |
| 2026-05-04 11:48 | 38.24282 | 16.60597 | 35165 ft | 539 kts | 134° |
| 2026-05-04 11:49 | 38.19013 | 16.67382 | 35157 ft | 539 kts | 134° |
| 2026-05-04 11:49 | 38.13734 | 16.74166 | 35159 ft | 538 kts | 135° |
| 2026-05-04 11:50 | 38.08841 | 16.81298 | 35220 ft | 533 kts | 125° |
| 2026-05-04 11:50 | 38.06818 | 16.85223 | 35321 ft | 531 kts | 120° |
| 2026-05-04 11:50 | 38.04879 | 16.89221 | 35425 ft | 532 kts | 120° |
| 2026-05-04 11:50 | 38.02933 | 16.93216 | 35536 ft | 532 kts | 121° |
| 2026-05-04 11:51 | 38.00978 | 16.97198 | 35681 ft | 532 kts | 121° |
| 2026-05-04 11:51 | 37.99012 | 17.01169 | 35825 ft | 531 kts | 121° |
| 2026-05-04 11:51 | 37.97042 | 17.05124 | 35984 ft | 530 kts | 121° |
| 2026-05-04 11:51 | 37.95068 | 17.09072 | 36146 ft | 529 kts | 121° |
| 2026-05-04 11:52 | 37.93100 | 17.12997 | 36278 ft | 529 kts | 121° |
| 2026-05-04 11:52 | 37.91127 | 17.16926 | 36427 ft | 528 kts | 122° |
| 2026-05-04 11:52 | 37.89150 | 17.20861 | 36518 ft | 530 kts | 122° |
| 2026-05-04 11:53 | 37.85201 | 17.28711 | 36675 ft | 533 kts | 122° |
| 2026-05-04 11:53 | 37.83206 | 17.32671 | 36813 ft | 533 kts | 122° |
| 2026-05-04 11:53 | 37.81215 | 17.36619 | 36930 ft | 534 kts | 122° |
| 2026-05-04 11:53 | 37.79216 | 17.40577 | 37043 ft | 534 kts | 122° |
| 2026-05-04 11:55 | 37.65128 | 17.68341 | 37172 ft | 537 kts | 122° |
| 2026-05-04 11:56 | 37.61084 | 17.76268 | 37187 ft | 538 kts | 122° |
| 2026-05-04 11:56 | 37.57035 | 17.84185 | 37172 ft | 538 kts | 122° |
| 2026-05-04 11:57 | 37.52978 | 17.92099 | 37170 ft | 537 kts | 122° |
| 2026-05-04 11:57 | 37.48923 | 17.99991 | 37154 ft | 536 kts | 122° |
| 2026-05-04 11:58 | 37.44866 | 18.07868 | 37171 ft | 535 kts | 122° |
| 2026-05-04 11:58 | 37.40810 | 18.15726 | 37174 ft | 535 kts | 122° |
| 2026-05-04 11:59 | 37.36778 | 18.23516 | 37174 ft | 535 kts | 122° |
| 2026-05-04 11:59 | 37.32691 | 18.31395 | 37174 ft | 535 kts | 122° |
| 2026-05-04 12:00 | 37.28651 | 18.39165 | 37170 ft | 535 kts | 122° |
| 2026-05-04 12:00 | 37.24546 | 18.47042 | 37185 ft | 535 kts | 122° |
| 2026-05-04 12:01 | 37.20489 | 18.54808 | 37175 ft | 535 kts | 122° |
| 2026-05-04 12:02 | 37.06155 | 18.82107 | 37182 ft | 536 kts | 122° |
| 2026-05-04 12:03 | 37.02045 | 18.89894 | 37174 ft | 537 kts | 122° |
| 2026-05-04 12:03 | 36.97925 | 18.97685 | 37174 ft | 537 kts | 122° |